Time;durP1;ratioP1;P1;durP2;ratioP2;P2;SDS_P1;SDS_P2;PMS_P1;PMS_P2;Temp;Humidity;BMP_temperature;BMP_pressure;BME280_temperature;BME280_humidity;BME280_pressure;Samples;Min_cycle;Max_cycle;Signal;HPM_P1;HPM_P2
2022/03/18 00:01:01;;;;;;;73.9;53.3;;;;;;;;;;;;;
2022/03/18 00:03:28;;;;;;;71;51.5;;;;;;;;;;;;;
2022/03/18 00:06:02;;;;;;;73.6;52.3;;;;;;;;;;;;;
2022/03/18 00:08:32;;;;;;;71.7;52.4;;;;;;;;;;;;;
2022/03/18 00:11:01;;;;;;;71.8;52.5;;;;;;;;;;;;;
2022/03/18 00:13:27;;;;;;;73.9;51.9;;;;;;;;;;;;;
2022/03/18 00:15:56;;;;;;;73.7;52.7;;;;;;;;;;;;;
2022/03/18 00:18:25;;;;;;;70.7;51;;;;;;;;;;;;;
2022/03/18 00:20:54;;;;;;;71.5;52;;;;;;;;;;;;;
2022/03/18 00:23:23;;;;;;;73.1;52.6;;;;;;;;;;;;;
2022/03/18 00:25:48;;;;;;;72.9;53.6;;;;;;;;;;;;;
2022/03/18 00:28:19;;;;;;;74.9;53.8;;;;;;;;;;;;;
2022/03/18 00:30:47;;;;;;;74.9;54.1;;;;;;;;;;;;;
2022/03/18 00:33:12;;;;;;;72.3;52;;;;;;;;;;;;;
2022/03/18 00:35:46;;;;;;;74;53.2;;;;;;;;;;;;;
2022/03/18 00:38:21;;;;;;;78.3;53.8;;;;;;;;;;;;;
2022/03/18 00:40:48;;;;;;;75.5;53.7;;;;;;;;;;;;;
2022/03/18 00:43:12;;;;;;;75.4;53.8;;;;;;;;;;;;;
2022/03/18 00:45:40;;;;;;;77.9;55.6;;;;;;;;;;;;;
2022/03/18 00:55:38;;;;;;;82.1;57.1;;;;;;;;;;;;;
2022/03/18 00:58:03;;;;;;;82;57.2;;;;;;;;;;;;;
2022/03/18 01:00:28;;;;;;;80.9;56.5;;;;;;;;;;;;;
2022/03/18 01:02:53;;;;;;;79.3;55.9;;;;;;;;;;;;;
2022/03/18 01:05:19;;;;;;;80;55.9;;;;;;;;;;;;;
2022/03/18 01:07:44;;;;;;;80.7;56.2;;;;;;;;;;;;;
2022/03/18 01:10:09;;;;;;;82.6;57.8;;;;;;;;;;;;;
2022/03/18 01:12:34;;;;;;;79;56;;;;;;;;;;;;;
2022/03/18 01:14:59;;;;;;;79.3;55.1;;;;;;;;;;;;;
2022/03/18 01:17:25;;;;;;;80.5;55.6;;;;;;;;;;;;;
2022/03/18 01:19:50;;;;;;;76.4;54.5;;;;;;;;;;;;;
2022/03/18 01:24:47;;;;;;;77.8;53.9;;;;;;;;;;;;;
2022/03/18 01:27:12;;;;;;;77.1;54.5;;;;;;;;;;;;;
2022/03/18 01:29:37;;;;;;;78.8;54.7;;;;;;;;;;;;;
2022/03/18 01:32:03;;;;;;;77.9;55.7;;;;;;;;;;;;;
2022/03/18 01:34:28;;;;;;;74.7;55;;;;;;;;;;;;;
2022/03/18 01:36:53;;;;;;;78.5;54.4;;;;;;;;;;;;;
2022/03/18 01:39:18;;;;;;;80.5;55;;;;;;;;;;;;;
2022/03/18 01:41:43;;;;;;;78.4;54.3;;;;;;;;;;;;;
2022/03/18 01:44:08;;;;;;;83.2;55.9;;;;;;;;;;;;;
2022/03/18 01:46:33;;;;;;;78.7;54.7;;;;;;;;;;;;;
2022/03/18 01:48:59;;;;;;;82.2;56.7;;;;;;;;;;;;;
2022/03/18 01:51:24;;;;;;;83.6;57.7;;;;;;;;;;;;;
2022/03/18 01:54:44;;;;;;;82.3;56;;;;;;;;;;;;;
2022/03/18 01:56:14;;;;;;;85.3;57.8;;;;;;;;;;;;;
2022/03/18 01:58:39;;;;;;;83;56;;;;;;;;;;;;;
2022/03/18 02:01:04;;;;;;;79.2;56.4;;;;;;;;;;;;;
2022/03/18 02:03:30;;;;;;;82.5;56.3;;;;;;;;;;;;;
2022/03/18 02:05:57;;;;;;;84.8;58.2;;;;;;;;;;;;;
2022/03/18 02:08:21;;;;;;;84.5;57.5;;;;;;;;;;;;;
2022/03/18 02:10:47;;;;;;;84;58.5;;;;;;;;;;;;;
2022/03/18 02:13:12;;;;;;;81.6;56.8;;;;;;;;;;;;;
2022/03/18 02:15:40;;;;;;;81.8;56.1;;;;;;;;;;;;;
2022/03/18 02:18:06;;;;;;;84.5;56.7;;;;;;;;;;;;;
2022/03/18 02:20:31;;;;;;;88.2;58.2;;;;;;;;;;;;;
2022/03/18 02:22:55;;;;;;;82.6;57.1;;;;;;;;;;;;;
2022/03/18 02:25:22;;;;;;;84.2;56.1;;;;;;;;;;;;;
2022/03/18 02:27:47;;;;;;;87.9;57.6;;;;;;;;;;;;;
2022/03/18 02:30:12;;;;;;;85;57.2;;;;;;;;;;;;;
2022/03/18 02:32:37;;;;;;;83.6;57.5;;;;;;;;;;;;;
2022/03/18 02:35:02;;;;;;;87.8;59;;;;;;;;;;;;;
2022/03/18 02:37:27;;;;;;;96.3;60.5;;;;;;;;;;;;;
2022/03/18 02:39:52;;;;;;;93.6;61.3;;;;;;;;;;;;;
2022/03/18 02:42:18;;;;;;;94;60.5;;;;;;;;;;;;;
2022/03/18 02:44:43;;;;;;;89.6;60.5;;;;;;;;;;;;;
2022/03/18 02:47:08;;;;;;;86.2;60.3;;;;;;;;;;;;;
2022/03/18 02:49:34;;;;;;;93.5;60.5;;;;;;;;;;;;;
2022/03/18 02:51:59;;;;;;;94.9;61.4;;;;;;;;;;;;;
2022/03/18 02:54:24;;;;;;;90.8;61;;;;;;;;;;;;;
2022/03/18 02:56:49;;;;;;;96.4;62.1;;;;;;;;;;;;;
2022/03/18 02:59:14;;;;;;;93.2;61.2;;;;;;;;;;;;;
2022/03/18 03:01:39;;;;;;;95.4;64.1;;;;;;;;;;;;;
2022/03/18 03:04:04;;;;;;;95.1;63.2;;;;;;;;;;;;;
2022/03/18 03:08:55;;;;;;;94.9;62.9;;;;;;;;;;;;;
2022/03/18 03:11:22;;;;;;;95.5;63.1;;;;;;;;;;;;;
2022/03/18 03:13:46;;;;;;;90.9;60.9;;;;;;;;;;;;;
2022/03/18 03:16:13;;;;;;;101.8;64.7;;;;;;;;;;;;;
2022/03/18 03:18:38;;;;;;;97.9;64.5;;;;;;;;;;;;;
2022/03/18 03:21:04;;;;;;;98.6;65.2;;;;;;;;;;;;;
2022/03/18 03:23:29;;;;;;;99.4;64.5;;;;;;;;;;;;;
2022/03/18 03:25:56;;;;;;;98.9;64.5;;;;;;;;;;;;;
2022/03/18 03:28:21;;;;;;;98;63.7;;;;;;;;;;;;;
2022/03/18 03:30:46;;;;;;;94.2;63.2;;;;;;;;;;;;;
2022/03/18 03:33:11;;;;;;;96.4;62.3;;;;;;;;;;;;;
2022/03/18 03:35:38;;;;;;;97.5;64.1;;;;;;;;;;;;;
2022/03/18 03:38:03;;;;;;;96.4;62.9;;;;;;;;;;;;;
2022/03/18 03:40:28;;;;;;;94.8;61.8;;;;;;;;;;;;;
2022/03/18 03:42:54;;;;;;;90.8;61.7;;;;;;;;;;;;;
2022/03/18 03:45:19;;;;;;;92.8;60.8;;;;;;;;;;;;;
2022/03/18 03:47:44;;;;;;;91.5;60.6;;;;;;;;;;;;;
2022/03/18 03:50:09;;;;;;;93.7;61.6;;;;;;;;;;;;;
2022/03/18 03:52:35;;;;;;;93.8;61.3;;;;;;;;;;;;;
2022/03/18 03:55:01;;;;;;;94.6;62.1;;;;;;;;;;;;;
2022/03/18 03:57:26;;;;;;;89.6;60.5;;;;;;;;;;;;;
2022/03/18 03:59:52;;;;;;;89.7;61;;;;;;;;;;;;;
2022/03/18 04:02:31;;;;;;;91;59.8;;;;;;;8.22;85.78516;950.959;;;;
2022/03/18 04:04:57;;;;;;;93.8;60.7;;;;;;;8.21;85.92188;950.9915;;;;
2022/03/18 04:07:21;;;;;;;91.3;60.6;;;;;;;8.18;85.65527;951.0297;;;;
2022/03/18 04:09:47;;;;;;;90.5;60.4;;;;;;;8.27;85.18262;951.049;;;;
2022/03/18 04:12:11;;;;;;;89.1;59.4;;;;;;;8.2;84.79395;951.0081;;;;
2022/03/18 04:14:38;;;;;;;87.3;58.9;;;;;;;8.22;84.57227;951.0386;;;;
2022/03/18 04:17:06;;;;;;;89.8;59.2;;;;;;;8.17;84.6748;951.0014;;;;
2022/03/18 04:19:36;;;;;;;88.1;58.8;;;;;;;8.14;84.89648;951.0313;;;;
2022/03/18 04:22:01;;;;;;;87.7;58.5;;;;;;;8.12;84.93848;951.1025;;;;
2022/03/18 04:24:30;;;;;;;84.9;57.6;;;;;;;8.15;84.78516;951.106;;;;
2022/03/18 04:26:55;;;;;;;87.9;58.5;;;;;;;8.21;84.60254;951.1234;;;;
2022/03/18 04:29:22;;;;;;;83.5;57.7;;;;;;;8.08;85.04297;951.1565;;;;
2022/03/18 04:31:47;;;;;;;84.1;58.2;;;;;;;8.07;84.92773;951.1713;;;;
2022/03/18 04:34:15;;;;;;;83.5;58.1;;;;;;;8.03;85.18164;951.1697;;;;
2022/03/18 04:36:40;;;;;;;86.2;60.7;;;;;;;8;85.28809;951.2068;;;;
2022/03/18 04:39:06;;;;;;;83.4;58.5;;;;;;;8.04;85.11328;951.2286;;;;
2022/03/18 04:41:31;;;;;;;83.5;58.9;;;;;;;8.04;85.06836;951.1089;;;;
2022/03/18 04:43:56;;;;;;;83.7;58.7;;;;;;;8.03;85;951.2118;;;;
2022/03/18 04:46:21;;;;;;;84.7;57.8;;;;;;;7.98;85.12598;951.2584;;;;
2022/03/18 04:48:47;;;;;;;88;59.5;;;;;;;8.02;85.20117;951.281;;;;
2022/03/18 04:51:12;;;;;;;83.5;58.1;;;;;;;7.86;85.71484;951.2642;;;;
2022/03/18 04:53:42;;;;;;;86.1;60.8;;;;;;;7.87;85.83008;951.293;;;;
2022/03/18 04:56:05;;;;;;;87.5;61.2;;;;;;;7.84;85.8457;951.3059;;;;
2022/03/18 04:58:30;;;;;;;84.2;60.1;;;;;;;7.78;85.70996;951.3095;;;;
2022/03/18 05:00:56;;;;;;;86;59.8;;;;;;;7.85;85.81738;951.3567;;;;
2022/03/18 05:03:22;;;;;;;87;60.2;;;;;;;7.86;85.4541;951.3489;;;;
2022/03/18 05:05:47;;;;;;;84.1;59.9;;;;;;;7.7;86.14746;951.4219;;;;
2022/03/18 05:08:13;;;;;;;85.7;60.9;;;;;;;7.67;86.21973;951.4968;;;;
2022/03/18 05:10:38;;;;;;;90.5;62.4;;;;;;;7.73;86.09863;951.5249;;;;
2022/03/18 05:13:05;;;;;;;92.1;62.2;;;;;;;7.74;86.08887;951.5062;;;;
2022/03/18 05:15:33;;;;;;;87.8;61.9;;;;;;;7.75;85.86328;951.5098;;;;
2022/03/18 05:17:59;;;;;;;87.7;61.7;;;;;;;7.51;86.44824;951.5081;;;;
2022/03/18 05:20:26;;;;;;;111.1;66.3;;;;;;;7.48;87.06641;951.5625;;;;
2022/03/18 05:22:52;;;;;;;115.3;66.5;;;;;;;7.45;87.5498;951.5619;;;;
2022/03/18 05:25:19;;;;;;;125.6;69.2;;;;;;;7.24;88.01758;951.533;;;;
2022/03/18 05:27:44;;;;;;;104.2;66;;;;;;;7.31;88.00781;951.5659;;;;
2022/03/18 05:30:08;;;;;;;96.5;65.1;;;;;;;7.47;87.32715;951.6351;;;;
2022/03/18 05:32:34;;;;;;;96.6;65.3;;;;;;;7.51;86.64258;951.6835;;;;
2022/03/18 05:34:59;;;;;;;96;63.9;;;;;;;7.54;86.70703;951.6816;;;;
2022/03/18 05:37:26;;;;;;;96.9;65.1;;;;;;;7.59;86.46777;951.7472;;;;
2022/03/18 05:39:51;;;;;;;89.7;63.3;;;;;;;7.63;86.00879;951.7467;;;;
2022/03/18 05:42:17;;;;;;;91.8;63;;;;;;;7.74;85.52148;951.7711;;;;
2022/03/18 05:44:42;;;;;;;90;64;;;;;;;7.75;85.1377;951.8058;;;;
2022/03/18 05:47:08;;;;;;;91.8;64.4;;;;;;;7.7;85.36523;951.8192;;;;
2022/03/18 05:49:33;;;;;;;88.4;62.6;;;;;;;7.72;85.02832;951.824;;;;
2022/03/18 05:52:00;;;;;;;87.9;63.2;;;;;;;7.5;85.96094;951.8194;;;;
2022/03/18 05:54:25;;;;;;;85.8;62.1;;;;;;;7.63;85.72461;951.8933;;;;
2022/03/18 05:56:56;;;;;;;85.5;62.2;;;;;;;7.7;85.29883;951.9511;;;;
2022/03/18 05:59:16;;;;;;;87;62;;;;;;;7.73;84.96191;951.9614;;;;
2022/03/18 06:01:41;;;;;;;89.9;63.9;;;;;;;7.7;85.14941;951.9255;;;;
2022/03/18 06:04:10;;;;;;;87.4;62.5;;;;;;;7.7;85.07031;951.9944;;;;
2022/03/18 06:06:32;;;;;;;84.5;61.7;;;;;;;7.72;85.03027;951.9812;;;;
2022/03/18 06:13:51;;;;;;;87.1;63.1;;;;;;;7.6;85.61719;952.0818;;;;
2022/03/18 06:16:18;;;;;;;86.1;60.9;;;;;;;7.58;85.59082;952.0944;;;;
2022/03/18 06:18:47;;;;;;;89;63.1;;;;;;;7.35;86.19043;952.1454;;;;
2022/03/18 06:21:12;;;;;;;92.6;63.9;;;;;;;7.09;88.28027;952.1912;;;;
2022/03/18 06:23:37;;;;;;;91.7;64.6;;;;;;;7.14;88.26855;952.1691;;;;
2022/03/18 06:26:03;;;;;;;88.7;63.7;;;;;;;7.31;87.55469;952.1191;;;;
2022/03/18 06:28:28;;;;;;;89.1;61.4;;;;;;;7.48;86.69434;952.1459;;;;
2022/03/18 06:30:53;;;;;;;88.3;61.2;;;;;;;7.55;86.2998;952.1838;;;;
2022/03/18 06:33:19;;;;;;;85.6;62.9;;;;;;;7.63;85.75879;952.1794;;;;
2022/03/18 06:35:44;;;;;;;87.1;61.7;;;;;;;7.73;85.36133;952.2188;;;;
2022/03/18 06:38:11;;;;;;;86.3;62.5;;;;;;;7.83;84.72266;952.2145;;;;
2022/03/18 06:40:36;;;;;;;84.4;60.1;;;;;;;7.67;84.41797;952.2565;;;;
2022/03/18 06:43:02;;;;;;;86.9;61.6;;;;;;;7.73;84.78027;952.2319;;;;
2022/03/18 06:45:29;;;;;;;88.4;62.1;;;;;;;7.81;84.29785;952.2715;;;;
2022/03/18 06:47:54;;;;;;;86.6;61.2;;;;;;;7.96;83.54492;952.3046;;;;
2022/03/18 06:50:20;;;;;;;81.6;59.6;;;;;;;8.14;82.55762;952.2855;;;;
2022/03/18 06:52:46;;;;;;;85.4;60.9;;;;;;;8.25;81.94238;952.3555;;;;
2022/03/18 06:55:11;;;;;;;81.5;58.3;;;;;;;8.36;81.69238;952.3174;;;;
2022/03/18 06:57:37;;;;;;;81.1;58.5;;;;;;;8.48;81.04395;952.3455;;;;
2022/03/18 07:00:02;;;;;;;85.7;60.3;;;;;;;8.43;80.96582;952.3766;;;;
2022/03/18 07:02:29;;;;;;;84.6;59.5;;;;;;;8.47;81.38184;952.3789;;;;
2022/03/18 07:04:55;;;;;;;84.9;59.6;;;;;;;8.46;80.99316;952.3579;;;;
2022/03/18 07:07:19;;;;;;;80.4;57.6;;;;;;;8.49;81.43066;952.4004;;;;
2022/03/18 07:09:44;;;;;;;81.5;57.4;;;;;;;8.54;80.59961;952.3897;;;;
2022/03/18 07:12:09;;;;;;;80.1;56.9;;;;;;;8.52;80.58496;952.4222;;;;
2022/03/18 07:14:35;;;;;;;81.3;57.7;;;;;;;8.61;80.63574;952.4163;;;;
2022/03/18 07:19:25;;;;;;;77.7;55.8;;;;;;;8.79;79.53223;952.4254;;;;
2022/03/18 07:21:50;;;;;;;81.2;58.9;;;;;;;8.5;80.28613;952.4264;;;;
2022/03/18 07:24:15;;;;;;;81.3;58.7;;;;;;;8.59;81.03027;952.3688;;;;
2022/03/18 07:26:40;;;;;;;81.5;58.4;;;;;;;8.62;81.28516;952.4863;;;;
2022/03/18 07:29:06;;;;;;;78.4;57.1;;;;;;;8.61;80.34082;952.4842;;;;
2022/03/18 07:32:25;;;;;;;78.6;57.6;;;;;;;8.64;80.5293;952.568;;;;
2022/03/18 07:34:53;;;;;;;77.3;56.3;;;;;;;8.46;79.63184;952.5502;;;;
2022/03/18 07:37:19;;;;;;;79;56.3;;;;;;;8.61;79.66016;952.6058;;;;
2022/03/18 07:39:45;;;;;;;75.8;55.3;;;;;;;8.73;78.59961;952.6375;;;;
2022/03/18 07:42:10;;;;;;;75.4;55.2;;;;;;;8.78;78.4375;952.6322;;;;
2022/03/18 07:44:37;;;;;;;77.3;56.7;;;;;;;8.62;78.8418;952.6575;;;;
2022/03/18 07:47:02;;;;;;;80.1;55.3;;;;;;;8.56;78.97949;952.6646;;;;
2022/03/18 07:49:27;;;;;;;79.3;56;;;;;;;8.69;78.53613;952.6813;;;;
2022/03/18 07:51:52;;;;;;;80;55.3;;;;;;;8.87;77.73926;952.7178;;;;
2022/03/18 07:54:17;;;;;;;73;54.1;;;;;;;9.08;77.09375;952.6594;;;;
2022/03/18 07:56:42;;;;;;;74.5;53.6;;;;;;;9.01;77.04688;952.7812;;;;
2022/03/18 07:59:08;;;;;;;74.7;54.3;;;;;;;8.84;77.46094;952.759;;;;
2022/03/18 08:01:35;;;;;;;77.1;54.6;;;;;;;8.86;77.78125;952.7784;;;;
2022/03/18 08:03:59;;;;;;;75.9;55.2;;;;;;;8.71;78.59668;952.7564;;;;
2022/03/18 08:06:25;;;;;;;74.4;55.8;;;;;;;8.8;78.10156;952.738;;;;
2022/03/18 08:08:53;;;;;;;75.6;55.2;;;;;;;8.83;78.25391;952.8038;;;;
2022/03/18 08:11:17;;;;;;;76.5;54.5;;;;;;;8.8;78.2832;952.78;;;;
2022/03/18 08:13:45;;;;;;;75.7;53.3;;;;;;;9.04;77.62207;952.7908;;;;
2022/03/18 08:16:12;;;;;;;74.4;54.2;;;;;;;9.18;76.78125;952.8398;;;;
2022/03/18 08:18:38;;;;;;;75;53.3;;;;;;;8.96;77.6416;952.9081;;;;
2022/03/18 08:21:03;;;;;;;76.6;55.4;;;;;;;8.94;77.45605;952.8733;;;;
2022/03/18 08:23:33;;;;;;;74.3;54.5;;;;;;;9.02;77.90332;953.0195;;;;
2022/03/18 08:25:57;;;;;;;76.3;54.6;;;;;;;9.13;76.70508;952.9547;;;;
2022/03/18 08:28:24;;;;;;;74.7;53.8;;;;;;;9.03;77.14258;952.9634;;;;
2022/03/18 08:30:49;;;;;;;80.3;54.2;;;;;;;8.86;78.19238;953.0385;;;;
2022/03/18 08:33:15;;;;;;;77.5;56.3;;;;;;;8.64;79.02637;953.1119;;;;
2022/03/18 08:35:41;;;;;;;78.4;56.4;;;;;;;8.66;79.62305;953.1469;;;;
2022/03/18 08:38:09;;;;;;;81.6;57.7;;;;;;;8.82;79.10742;953.1179;;;;
2022/03/18 08:40:34;;;;;;;79.2;56.2;;;;;;;8.85;77.90625;953.0858;;;;
2022/03/18 08:43:01;;;;;;;79.6;55.7;;;;;;;8.88;78.68457;953.1217;;;;
2022/03/18 08:45:26;;;;;;;74.7;54;;;;;;;9.05;77.81738;953.1606;;;;
2022/03/18 08:47:53;;;;;;;76.6;53.6;;;;;;;9.06;78.48828;953.1862;;;;
2022/03/18 08:50:20;;;;;;;75.6;54.4;;;;;;;9.29;77.22168;953.2369;;;;
2022/03/18 08:52:49;;;;;;;71.1;50.8;;;;;;;9.81;75.6748;953.2095;;;;
2022/03/18 08:55:15;;;;;;;76.3;52.3;;;;;;;9.83;74.43359;953.2458;;;;
2022/03/18 08:57:47;;;;;;;72.7;51.9;;;;;;;9.54;75.37598;953.2213;;;;
2022/03/18 09:00:13;;;;;;;73.3;53;;;;;;;9.77;74.23047;953.2402;;;;
2022/03/18 09:02:40;;;;;;;75.5;53.2;;;;;;;9.75;74.96777;953.1345;;;;
2022/03/18 09:05:05;;;;;;;69.4;49.9;;;;;;;10.27;73.18945;953.2402;;;;
2022/03/18 09:07:30;;;;;;;67.6;48.7;;;;;;;10.75;70.17188;953.2614;;;;
2022/03/18 09:09:56;;;;;;;71;49.4;;;;;;;10.68;70.7207;953.2974;;;;
2022/03/18 09:12:21;;;;;;;71.7;50.8;;;;;;;10.73;70.41113;953.2587;;;;
2022/03/18 09:14:49;;;;;;;69.2;50.2;;;;;;;10.29;71.65039;953.3164;;;;
2022/03/18 09:17:14;;;;;;;70;50;;;;;;;10.53;70.9375;953.3328;;;;
2022/03/18 09:19:42;;;;;;;67.1;48.7;;;;;;;10.75;70.60742;953.3127;;;;
2022/03/18 09:22:07;;;;;;;71;49.4;;;;;;;10.72;69.55078;953.2924;;;;
2022/03/18 09:24:34;;;;;;;71.9;49.6;;;;;;;10.65;70.44238;953.3013;;;;
2022/03/18 09:26:59;;;;;;;68;47.7;;;;;;;10.84;69.61621;953.3611;;;;
2022/03/18 09:29:26;;;;;;;68.9;49.8;;;;;;;10.96;69.4082;953.3262;;;;
2022/03/18 09:31:49;;;;;;;68.7;48.9;;;;;;;11.11;68.71094;953.382;;;;
2022/03/18 09:34:16;;;;;;;70.1;49.4;;;;;;;11.29;68.3623;953.3865;;;;
2022/03/18 09:36:42;;;;;;;72.9;50.3;;;;;;;10.97;69.78516;953.3605;;;;
2022/03/18 09:39:09;;;;;;;68.2;48;;;;;;;10.9;70.02539;953.4277;;;;
2022/03/18 09:41:34;;;;;;;67.4;49.6;;;;;;;10.64;71.20508;953.4689;;;;
2022/03/18 09:43:59;;;;;;;70.2;49.7;;;;;;;10.48;70.72266;953.3129;;;;
2022/03/18 09:46:24;;;;;;;70.1;51;;;;;;;10.95;69.78223;953.3289;;;;
2022/03/18 09:48:51;;;;;;;68.2;48.2;;;;;;;11.11;68.91699;953.4092;;;;
2022/03/18 09:51:15;;;;;;;72.1;49.1;;;;;;;10.9;69.38477;953.4484;;;;
2022/03/18 09:53:40;;;;;;;72.2;48.8;;;;;;;11;70.0752;953.316;;;;
2022/03/18 09:56:06;;;;;;;68.3;49.1;;;;;;;11.32;68.10352;953.4425;;;;
2022/03/18 09:58:33;;;;;;;69.2;48.2;;;;;;;11.54;67.39355;953.4645;;;;
2022/03/18 10:01:01;;;;;;;68.6;49.2;;;;;;;11.28;67.9834;953.4501;;;;
2022/03/18 10:03:23;;;;;;;69.1;48.5;;;;;;;11.48;67.79688;953.478;;;;
2022/03/18 10:05:49;;;;;;;68.5;46.9;;;;;;;11.6;66.95703;953.4927;;;;
2022/03/18 10:08:14;;;;;;;69.3;48.7;;;;;;;11.63;67.01855;953.3447;;;;
2022/03/18 10:10:40;;;;;;;70.1;49.1;;;;;;;11.55;67.01855;953.4219;;;;
2022/03/18 10:13:08;;;;;;;73.5;49.9;;;;;;;11.31;67.73633;953.3864;;;;
2022/03/18 10:15:32;;;;;;;73.2;50.6;;;;;;;10.78;69.44824;953.481;;;;
2022/03/18 10:18:01;;;;;;;76;51.1;;;;;;;10.89;69.52051;953.5189;;;;
2022/03/18 10:20:26;;;;;;;75.8;52.6;;;;;;;10.74;70.67383;953.533;;;;
2022/03/18 10:22:52;;;;;;;73.5;51;;;;;;;10.85;70.54395;953.5934;;;;
2022/03/18 10:25:17;;;;;;;72.4;51.3;;;;;;;11.22;68.92285;953.5207;;;;
2022/03/18 10:27:44;;;;;;;76.6;51.8;;;;;;;10.73;71.71191;953.5947;;;;
2022/03/18 10:30:09;;;;;;;71.3;49.8;;;;;;;11.1;69.40527;953.5715;;;;
2022/03/18 10:32:36;;;;;;;72.6;51.3;;;;;;;10.92;69.41113;953.6331;;;;
2022/03/18 10:37:27;;;;;;;71.8;51.5;;;;;;;11.24;68.8457;953.6472;;;;
2022/03/18 10:41:11;;;;;;;71.3;50;;;;;;;11.57;67.37695;953.7023;;;;
2022/03/18 10:43:38;;;;;;;64.9;47.1;;;;;;;11.73;66.66895;953.7164;;;;
2022/03/18 10:46:02;;;;;;;70.2;50;;;;;;;11.78;65.88574;953.7296;;;;
2022/03/18 10:48:27;;;;;;;68.6;48.2;;;;;;;11.77;65.71094;953.6973;;;;
2022/03/18 10:51:06;;;;;;;67.4;48.6;;;;;;;11.61;66.5127;953.7459;;;;
2022/03/18 10:53:32;;;;;;;66.5;48.1;;;;;;;11.72;66.00195;953.7606;;;;
2022/03/18 10:55:58;;;;;;;70.6;51.3;;;;;;;11.26;67.4873;953.7731;;;;
2022/03/18 10:58:21;;;;;;;71.5;50.7;;;;;;;11.19;67.63672;953.8079;;;;
2022/03/18 11:00:50;;;;;;;69.9;50.5;;;;;;;11.25;67.21191;953.772;;;;
2022/03/18 11:03:15;;;;;;;68.7;49.3;;;;;;;11.29;67.80176;953.7939;;;;
2022/03/18 11:05:40;;;;;;;70.2;50.3;;;;;;;11.18;67.76074;953.8172;;;;
2022/03/18 11:08:05;;;;;;;72.6;51.3;;;;;;;11.04;68.12793;953.8129;;;;
2022/03/18 11:12:57;;;;;;;69.1;50.6;;;;;;;10.99;68.62402;953.767;;;;
2022/03/18 11:15:22;;;;;;;71.5;49.8;;;;;;;11.05;68.48438;953.7972;;;;
2022/03/18 11:17:47;;;;;;;68;49.3;;;;;;;10.96;68.35547;953.7548;;;;
2022/03/18 11:20:16;;;;;;;72.8;51;;;;;;;10.7;69.33203;953.6926;;;;
2022/03/18 11:22:40;;;;;;;68.5;50.6;;;;;;;11.05;69.45703;953.7112;;;;
2022/03/18 11:25:12;;;;;;;67;48.8;;;;;;;11.05;67.71973;953.6889;;;;
2022/03/18 11:27:41;;;;;;;66.6;49.5;;;;;;;11.36;67.125;953.6214;;;;
2022/03/18 11:30:03;;;;;;;64.3;47.4;;;;;;;11.74;65.69727;953.6641;;;;
2022/03/18 11:32:29;;;;;;;63.9;47.8;;;;;;;11.79;65.1543;953.5117;;;;
2022/03/18 11:34:54;;;;;;;70.7;48.7;;;;;;;11.57;65.79688;953.645;;;;
2022/03/18 11:37:20;;;;;;;67.5;49.8;;;;;;;11.69;65.52832;953.5636;;;;
2022/03/18 11:39:46;;;;;;;66.5;47.7;;;;;;;12.22;64.18652;953.579;;;;
2022/03/18 11:42:13;;;;;;;62.6;45.4;;;;;;;12.53;62.51172;953.5261;;;;
2022/03/18 11:44:38;;;;;;;64.7;46;;;;;;;12.69;62.04297;953.5547;;;;
2022/03/18 11:47:03;;;;;;;62.8;46.2;;;;;;;13.01;60.98633;953.5378;;;;
2022/03/18 11:49:28;;;;;;;64.6;45.9;;;;;;;13.15;60.92578;953.4875;;;;
2022/03/18 11:52:21;;;;;;;59.4;43.6;;;;;;;13.23;59.95996;953.4861;;;;
2022/03/18 11:54:46;;;;;;;62.9;44.9;;;;;;;13.5;59.91699;953.4807;;;;
2022/03/18 11:57:12;;;;;;;55.9;42.8;;;;;;;14.32;56.9541;953.454;;;;
2022/03/18 11:59:38;;;;;;;57.6;42.8;;;;;;;14.97;54.20117;953.4864;;;;
2022/03/18 12:02:02;;;;;;;59;41.6;;;;;;;14.84;53.80469;953.4825;;;;
2022/03/18 12:04:27;;;;;;;59.1;43.6;;;;;;;15.24;53.50781;953.4288;;;;
2022/03/18 12:06:52;;;;;;;56.5;42.5;;;;;;;15.86;51.87305;953.3909;;;;
2022/03/18 12:09:32;;;;;;;56.3;41.9;;;;;;;16.29;50.53516;953.3713;;;;
2022/03/18 12:11:59;;;;;;;56.5;42.5;;;;;;;17.14;47.43457;953.3475;;;;
2022/03/18 12:14:24;;;;;;;51.4;39.8;;;;;;;17.37;46.66895;953.3519;;;;
2022/03/18 12:16:49;;;;;;;50.9;38.7;;;;;;;17.53;46.26855;953.3638;;;;
2022/03/18 12:19:14;;;;;;;54.2;39.4;;;;;;;16.97;46.19922;953.4221;;;;
2022/03/18 12:21:40;;;;;;;50.5;39.2;;;;;;;16.67;47.18652;953.3972;;;;
2022/03/18 12:24:05;;;;;;;52.9;39.8;;;;;;;16.54;47.52051;953.3276;;;;
2022/03/18 12:26:30;;;;;;;50.3;39.4;;;;;;;16.87;46.7793;953.3342;;;;
2022/03/18 12:28:55;;;;;;;50.5;38.1;;;;;;;16.82;46.89063;953.3748;;;;
2022/03/18 12:31:23;;;;;;;51.3;38.4;;;;;;;16.95;46.73047;953.3293;;;;
2022/03/18 12:33:48;;;;;;;53.1;38.5;;;;;;;17.16;45.79004;953.2767;;;;
2022/03/18 12:36:14;;;;;;;51.5;37.7;;;;;;;16.68;46.97949;953.2034;;;;
2022/03/18 12:38:39;;;;;;;47.7;36.4;;;;;;;16.9;45.60059;953.2726;;;;
2022/03/18 12:41:06;;;;;;;51.1;36.9;;;;;;;16.24;47.58008;953.2523;;;;
2022/03/18 12:43:31;;;;;;;48.5;37.1;;;;;;;15.88;49.06641;953.2017;;;;
2022/03/18 12:45:56;;;;;;;49.8;37.2;;;;;;;15.27;49.5752;953.2327;;;;
2022/03/18 12:48:23;;;;;;;47;37;;;;;;;14.48;52.10156;953.2246;;;;
2022/03/18 12:50:48;;;;;;;47.7;35.6;;;;;;;14.6;51.45801;953.254;;;;
2022/03/18 12:53:13;;;;;;;48.8;36.1;;;;;;;14.24;52.36133;953.2763;;;;
2022/03/18 12:55:38;;;;;;;47.9;37.3;;;;;;;14.34;51.75098;953.2302;;;;
2022/03/18 12:58:04;;;;;;;47;36.9;;;;;;;14.5;52.70313;953.2346;;;;
2022/03/18 13:00:30;;;;;;;41.9;32.5;;;;;;;14.22;50.45801;953.0756;;;;
2022/03/18 13:02:56;;;;;;;41.1;32.9;;;;;;;14.49;50.70801;953.1823;;;;
2022/03/18 13:05:20;;;;;;;43.2;31.9;;;;;;;14.61;50.17969;953.0963;;;;
2022/03/18 13:07:48;;;;;;;40.7;30.5;;;;;;;15.21;48.51855;953.1014;;;;
2022/03/18 13:10:14;;;;;;;37.8;29.7;;;;;;;15.27;47.45215;953.0882;;;;
2022/03/18 13:12:39;;;;;;;40.6;30.9;;;;;;;14.63;48.62695;953.0584;;;;
2022/03/18 13:15:04;;;;;;;40.7;30.6;;;;;;;14.56;49.5752;953.0353;;;;
2022/03/18 13:17:31;;;;;;;36.9;28.1;;;;;;;14.17;50.26855;952.9573;;;;
2022/03/18 13:19:56;;;;;;;40.5;28.4;;;;;;;13.54;51.14941;952.9333;;;;
2022/03/18 13:22:22;;;;;;;37.2;27.2;;;;;;;13.44;51.19531;952.9133;;;;
2022/03/18 13:24:47;;;;;;;38.2;26.7;;;;;;;13.39;50.09766;952.8488;;;;
2022/03/18 13:27:12;;;;;;;30.6;23.8;;;;;;;13.76;49.94434;952.8605;;;;
2022/03/18 13:34:28;;;;;;;29.5;21.4;;;;;;;13.99;46.38086;952.9103;;;;
2022/03/18 13:36:53;;;;;;;27.3;21.5;;;;;;;13.75;46.83789;952.8691;;;;
2022/03/18 13:39:18;;;;;;;35.9;23.2;;;;;;;13.48;48.4873;952.9023;;;;
2022/03/18 13:41:43;;;;;;;27.1;21.7;;;;;;;13.28;48.39551;952.9672;;;;
2022/03/18 13:44:08;;;;;;;28.8;21.6;;;;;;;12.96;49.11719;952.9124;;;;
2022/03/18 13:46:33;;;;;;;26.9;21.4;;;;;;;12.76;49.08496;952.9562;;;;
2022/03/18 13:48:58;;;;;;;30.2;22.6;;;;;;;12.87;48.64844;952.9422;;;;
2022/03/18 13:51:24;;;;;;;28.4;22.4;;;;;;;12.68;49.47559;952.8293;;;;
2022/03/18 13:53:49;;;;;;;31.8;22.3;;;;;;;13.03;48.74707;952.8745;;;;
2022/03/18 13:56:15;;;;;;;47.2;23.3;;;;;;;13.26;48.25586;952.9003;;;;
2022/03/18 13:58:40;;;;;;;27.7;21.7;;;;;;;13.12;48.4707;952.9422;;;;
2022/03/18 14:01:05;;;;;;;29.3;21.5;;;;;;;13.12;48.63184;952.9319;;;;
2022/03/18 14:03:32;;;;;;;28.7;22.7;;;;;;;13;49.73242;952.9695;;;;
2022/03/18 14:05:57;;;;;;;34.9;23.4;;;;;;;13.15;49.71289;952.9891;;;;
2022/03/18 14:08:22;;;;;;;32.4;23.4;;;;;;;13.11;49.74316;952.9708;;;;
2022/03/18 14:10:48;;;;;;;29.2;22.5;;;;;;;13.08;49.1543;952.9894;;;;
2022/03/18 14:13:14;;;;;;;29.2;22.8;;;;;;;13.2;49.57031;952.965;;;;
2022/03/18 14:15:45;;;;;;;29.5;22.3;;;;;;;13.13;49.09082;952.9871;;;;
2022/03/18 14:18:08;;;;;;;30.5;23.6;;;;;;;13.2;49.46777;952.9868;;;;
2022/03/18 14:20:36;;;;;;;33;24.6;;;;;;;13.23;49.88477;952.9741;;;;
2022/03/18 14:23:01;;;;;;;32;24;;;;;;;12.92;50.98535;952.9125;;;;
2022/03/18 14:25:29;;;;;;;33.6;24.9;;;;;;;13.04;50.43652;952.9164;;;;
2022/03/18 14:27:54;;;;;;;32.1;24.5;;;;;;;13.38;50.55566;952.8965;;;;
2022/03/18 14:30:21;;;;;;;31.8;24.2;;;;;;;13.41;49.91699;952.8821;;;;
2022/03/18 14:32:44;;;;;;;32;23.5;;;;;;;13.23;50.05664;952.8901;;;;
2022/03/18 14:35:13;;;;;;;29.2;23.4;;;;;;;13.01;51.25977;952.9153;;;;
2022/03/18 14:37:38;;;;;;;30.5;24.2;;;;;;;12.61;52.08594;952.9622;;;;
2022/03/18 14:40:03;;;;;;;30.1;23.9;;;;;;;12.57;51.76953;952.9853;;;;
2022/03/18 14:42:28;;;;;;;31.8;24.4;;;;;;;12.6;51.62305;952.9526;;;;
2022/03/18 14:44:55;;;;;;;32.1;23.1;;;;;;;12.5;52.3457;952.9301;;;;
2022/03/18 14:47:19;;;;;;;29.4;23.2;;;;;;;12.48;52.72168;952.9503;;;;
2022/03/18 14:49:45;;;;;;;31.3;24.2;;;;;;;12.35;52.66113;952.8892;;;;
2022/03/18 14:52:10;;;;;;;32.9;24.8;;;;;;;12.2;53.27246;952.8578;;;;
2022/03/18 14:57:00;;;;;;;32.6;24.6;;;;;;;12.01;54.38477;952.8132;;;;
2022/03/18 14:59:26;;;;;;;52;27.4;;;;;;;11.8;55.16016;952.9373;;;;
2022/03/18 15:01:51;;;;;;;35.5;25;;;;;;;11.88;54.16113;952.877;;;;
2022/03/18 15:04:17;;;;;;;34.1;25.4;;;;;;;11.95;54.51563;952.9131;;;;
2022/03/18 15:06:59;;;;;;;34.1;25.6;;;;;;;11.88;54.18457;952.9519;;;;
2022/03/18 15:09:27;;;;;;;32.9;24.7;;;;;;;11.79;54.39063;953.0096;;;;
2022/03/18 15:11:52;;;;;;;33.2;24.7;;;;;;;11.84;54.29395;953.0419;;;;
2022/03/18 15:14:20;;;;;;;32.7;25.6;;;;;;;11.89;53.7959;953.0064;;;;
2022/03/18 15:16:49;;;;;;;33.6;24.7;;;;;;;11.75;54.12305;952.9372;;;;
2022/03/18 15:19:17;;;;;;;32.5;24.7;;;;;;;11.44;55.0459;952.9902;;;;
2022/03/18 15:21:42;;;;;;;34.3;24.8;;;;;;;11.35;55.2041;953.0709;;;;
2022/03/18 15:24:09;;;;;;;35.1;24.3;;;;;;;11.44;55.7666;953.1369;;;;
2022/03/18 15:26:37;;;;;;;34.1;25.5;;;;;;;11.47;55.05957;953.0355;;;;
2022/03/18 15:28:59;;;;;;;30.3;23.8;;;;;;;11.56;54.83008;953.0095;;;;
2022/03/18 15:31:29;;;;;;;31;24.3;;;;;;;11.52;54.34668;953.113;;;;
2022/03/18 15:33:53;;;;;;;31.3;24.6;;;;;;;11.63;54.27832;953.075;;;;
2022/03/18 15:36:22;;;;;;;30.3;23;;;;;;;11.6;53.57715;953.0331;;;;
2022/03/18 15:38:47;;;;;;;34.7;24.8;;;;;;;11.46;54.31445;953.1653;;;;
2022/03/18 15:41:15;;;;;;;31;23.9;;;;;;;11.59;53.59863;953.2324;;;;